createdAt,value
2019-05-11T00:00:49.559Z,11.50
2019-05-11T00:03:18.236Z,11.60
2019-05-11T00:05:46.650Z,11.60
2019-05-11T00:08:15.379Z,11.70
2019-05-11T00:10:43.849Z,11.70
2019-05-11T00:13:12.314Z,11.70
2019-05-11T00:15:40.766Z,11.60
2019-05-11T00:18:09.242Z,11.60
2019-05-11T00:20:37.762Z,11.60
2019-05-11T00:23:06.179Z,11.60
2019-05-11T00:25:34.616Z,11.60
2019-05-11T00:28:03.429Z,11.60
2019-05-11T00:30:31.925Z,11.60
2019-05-11T00:33:00.359Z,11.50
2019-05-11T00:35:28.809Z,11.50
2019-05-11T00:37:57.498Z,11.50
2019-05-11T00:40:25.929Z,11.50
2019-05-11T00:42:54.382Z,11.40
2019-05-11T00:45:22.845Z,11.40
2019-05-11T00:47:51.289Z,11.40
2019-05-11T00:50:19.717Z,11.40
2019-05-11T00:52:48.287Z,11.50
2019-05-11T00:55:16.777Z,11.40
2019-05-11T00:57:45.226Z,11.50
2019-05-11T01:00:14.398Z,11.40
2019-05-11T01:02:42.867Z,11.40
2019-05-11T01:05:11.287Z,11.40
2019-05-11T01:07:39.746Z,11.40
2019-05-11T01:10:22.981Z,11.40
2019-05-11T01:12:38.559Z,11.40
2019-05-11T01:15:07.255Z,11.40
2019-05-11T01:17:35.681Z,11.40
2019-05-11T01:20:06.970Z,11.30
2019-05-11T01:22:35.570Z,11.30
2019-05-11T01:25:05.029Z,11.30
2019-05-11T01:27:33.482Z,11.30
2019-05-11T01:30:02.223Z,11.30
2019-05-11T01:32:31.034Z,11.20
2019-05-11T01:34:59.469Z,11.20
2019-05-11T01:37:28.163Z,11.20
2019-05-11T01:39:56.594Z,11.20
2019-05-11T01:42:25.045Z,11.20
2019-05-11T01:44:53.477Z,11.30
2019-05-11T01:47:21.925Z,11.30
2019-05-11T01:49:50.373Z,11.30
2019-05-11T01:52:18.829Z,11.30
2019-05-11T01:54:47.281Z,11.30
2019-05-11T01:57:15.717Z,11.30
2019-05-11T01:59:44.250Z,11.30
2019-05-11T02:02:12.938Z,11.30
2019-05-11T02:04:41.833Z,11.20
2019-05-11T02:07:10.258Z,11.20
2019-05-11T02:09:39.220Z,11.10
2019-05-11T02:12:07.653Z,11.10
2019-05-11T02:14:36.111Z,11.10
2019-05-11T02:17:04.536Z,11.10
2019-05-11T02:19:32.957Z,11.10
2019-05-11T02:22:01.415Z,11.10
2019-05-11T02:24:29.842Z,11.10
2019-05-11T02:26:58.531Z,11.10
2019-05-11T02:29:27.058Z,11.10
2019-05-11T02:31:55.743Z,11.10
2019-05-11T02:34:24.173Z,11.10
2019-05-11T02:36:52.882Z,11.10
2019-05-11T02:39:21.574Z,11.10
2019-05-11T02:41:50.101Z,11.10
2019-05-11T02:44:18.541Z,11.20
2019-05-11T02:46:46.978Z,11.20
2019-05-11T02:49:15.430Z,11.20
2019-05-11T02:51:44.494Z,11.10
2019-05-11T02:54:13.686Z,11.20
2019-05-11T02:56:42.123Z,11.20
2019-05-11T02:59:10.568Z,11.30
2019-05-11T03:01:39.023Z,11.30
2019-05-11T03:04:07.544Z,11.30
2019-05-11T03:06:35.993Z,11.30
2019-05-11T03:09:06.143Z,11.30
2019-05-11T03:11:52.816Z,11.30
2019-05-11T03:14:04.970Z,11.30
2019-05-11T03:16:33.486Z,11.30
2019-05-11T03:19:02.018Z,11.40
2019-05-11T03:21:30.479Z,11.30
2019-05-11T03:23:58.986Z,11.40
2019-05-11T03:26:27.406Z,11.30
2019-05-11T03:28:55.850Z,11.20
2019-05-11T03:31:24.281Z,11.20
2019-05-11T03:33:52.735Z,11.20
2019-05-11T03:36:21.406Z,11.20
2019-05-11T03:38:49.859Z,11.20
2019-05-11T03:41:18.280Z,11.20
2019-05-11T03:43:46.701Z,11.20
2019-05-11T03:46:15.141Z,11.20
2019-05-11T03:48:43.607Z,11.20
2019-05-11T03:51:12.043Z,11.20
2019-05-11T03:53:40.640Z,11.20
2019-05-11T03:56:09.083Z,11.30
2019-05-11T03:58:37.511Z,11.30
2019-05-11T04:01:05.949Z,11.30
2019-05-11T04:03:34.386Z,11.30
2019-05-11T04:06:02.844Z,11.20
2019-05-11T04:08:31.535Z,11.20
2019-05-11T04:10:59.962Z,11.20
2019-05-11T04:13:28.420Z,11.20
2019-05-11T04:15:56.842Z,11.20
2019-05-11T04:18:25.279Z,11.30
2019-05-11T04:20:53.728Z,11.40
2019-05-11T04:23:22.170Z,11.50
2019-05-11T04:25:50.745Z,11.40
2019-05-11T04:28:19.186Z,11.40
2019-05-11T04:30:47.627Z,11.40
2019-05-11T04:33:16.071Z,11.50
2019-05-11T04:35:44.526Z,11.50
2019-05-11T04:38:13.202Z,11.40
2019-05-11T04:40:41.899Z,11.50
2019-05-11T04:43:10.325Z,11.40
2019-05-11T04:45:38.774Z,11.50
2019-05-11T04:48:07.485Z,11.50
2019-05-11T04:50:36.170Z,11.50
2019-05-11T04:53:04.630Z,11.60
2019-05-11T04:55:33.081Z,11.50
2019-05-11T04:58:01.524Z,11.50
2019-05-11T05:00:29.975Z,11.50
2019-05-11T05:02:58.434Z,11.60
2019-05-11T05:05:26.881Z,11.60
2019-05-11T05:08:08.470Z,11.70
2019-05-11T05:10:25.985Z,11.70
2019-05-11T05:13:09.329Z,11.70
2019-05-11T05:15:24.590Z,11.70
2019-05-11T05:17:53.042Z,11.70
2019-05-11T05:20:21.746Z,11.70
2019-05-11T05:22:50.933Z,11.70
2019-05-11T05:25:19.402Z,11.70
2019-05-11T05:27:47.858Z,11.70
2019-05-11T05:30:16.821Z,11.80
2019-05-11T05:32:45.263Z,11.80
2019-05-11T05:35:13.781Z,11.80
2019-05-11T05:37:42.458Z,11.90
2019-05-11T05:40:11.289Z,11.90
2019-05-11T05:42:39.713Z,11.90
2019-05-11T05:45:08.298Z,11.90
2019-05-11T05:47:36.750Z,11.90
2019-05-11T05:50:06.860Z,11.90
2019-05-11T05:52:35.278Z,11.90
2019-05-11T05:55:05.835Z,12.00
2019-05-11T05:57:34.278Z,12.00
2019-05-11T06:00:02.715Z,12.10
2019-05-11T06:02:31.406Z,12.00
2019-05-11T06:04:59.861Z,12.10
2019-05-11T06:07:28.298Z,12.10
2019-05-11T06:09:56.740Z,12.20
2019-05-11T06:12:25.173Z,12.30
2019-05-11T06:14:53.618Z,12.20
2019-05-11T06:17:22.085Z,12.20
2019-05-11T06:19:50.509Z,12.30
2019-05-11T06:22:18.961Z,12.30
2019-05-11T06:24:47.414Z,12.30
2019-05-11T06:27:15.846Z,12.40
2019-05-11T06:29:44.521Z,12.50
2019-05-11T06:32:13.222Z,12.50
2019-05-11T06:34:41.659Z,12.60
2019-05-11T06:37:10.126Z,12.60
2019-05-11T06:39:38.565Z,12.50
2019-05-11T06:42:07.022Z,12.60
2019-05-11T06:44:35.452Z,12.60
2019-05-11T06:47:03.891Z,12.60
2019-05-11T06:49:32.405Z,12.70
2019-05-11T06:52:01.105Z,12.90
2019-05-11T06:54:29.546Z,13.10
2019-05-11T06:56:57.991Z,13.00
2019-05-11T06:59:26.429Z,12.90
2019-05-11T07:01:54.853Z,12.90
2019-05-11T07:04:23.287Z,13.00
2019-05-11T07:06:51.742Z,12.90
2019-05-11T07:09:20.205Z,12.90
2019-05-11T07:11:48.646Z,13.00
2019-05-11T07:14:21.146Z,12.90
2019-05-11T07:16:47.318Z,13.00
2019-05-11T07:19:15.762Z,13.10
2019-05-11T07:21:44.190Z,13.10
2019-05-11T07:24:12.649Z,13.30
2019-05-11T07:26:41.074Z,13.60
2019-05-11T07:29:09.501Z,13.30
2019-05-11T07:31:37.950Z,13.20
2019-05-11T07:34:08.140Z,13.20
2019-05-11T07:36:38.841Z,13.20
2019-05-11T07:39:08.289Z,13.20
2019-05-11T07:41:38.782Z,13.30
2019-05-11T07:44:09.790Z,13.30
2019-05-11T07:46:37.743Z,13.40
2019-05-11T07:49:08.603Z,13.90
2019-05-11T07:51:38.901Z,14.10
2019-05-11T07:54:08.486Z,13.60
2019-05-11T07:56:39.006Z,13.50
2019-05-11T07:59:08.011Z,13.60
2019-05-11T08:01:38.670Z,13.60
2019-05-11T08:04:07.793Z,13.60
2019-05-11T08:06:38.898Z,13.50
2019-05-11T08:09:08.398Z,14.40
2019-05-11T08:11:38.843Z,15.20
2019-05-11T08:14:07.816Z,15.30
2019-05-11T08:16:38.637Z,15.40
2019-05-11T08:19:09.839Z,14.60
2019-05-11T08:21:38.677Z,14.10
2019-05-11T08:24:08.943Z,14.20
2019-05-11T08:26:38.607Z,14.00
2019-05-11T08:29:08.107Z,14.30
2019-05-11T08:31:38.465Z,14.40
2019-05-11T08:34:08.865Z,14.10
2019-05-11T08:36:37.918Z,14.60
2019-05-11T08:39:07.848Z,14.20
2019-05-11T08:41:38.415Z,14.00
2019-05-11T08:44:08.889Z,14.10
2019-05-11T08:46:38.567Z,14.50
2019-05-11T08:49:08.639Z,15.10
2019-05-11T08:51:38.667Z,14.90
2019-05-11T08:54:09.001Z,15.40
2019-05-11T08:56:38.415Z,15.70
2019-05-11T08:59:08.049Z,16.00
2019-05-11T09:01:39.306Z,15.60
2019-05-11T09:04:08.873Z,15.10
2019-05-11T09:06:37.792Z,15.10
2019-05-11T09:09:08.992Z,15.10
2019-05-11T09:11:38.877Z,15.20
2019-05-11T09:14:08.345Z,15.20
2019-05-11T09:16:38.360Z,15.80
2019-05-11T09:19:08.828Z,15.60
2019-05-11T09:21:38.298Z,15.80
2019-05-11T09:24:08.432Z,15.80
2019-05-11T09:26:38.912Z,16.00
2019-05-11T09:29:08.701Z,15.90
2019-05-11T09:31:38.176Z,15.30
2019-05-11T09:34:08.942Z,15.00
2019-05-11T09:36:38.896Z,14.70
2019-05-11T09:39:08.625Z,14.90
2019-05-11T09:41:38.353Z,14.80
2019-05-11T09:44:09.022Z,14.70
2019-05-11T09:46:38.468Z,14.60
2019-05-11T09:49:08.033Z,14.50
2019-05-11T09:51:37.971Z,14.60
2019-05-11T09:54:07.931Z,14.70
2019-05-11T09:56:38.398Z,14.70
2019-05-11T09:59:08.837Z,14.60
2019-05-11T10:01:37.857Z,14.70
2019-05-11T10:04:08.780Z,14.80
2019-05-11T10:06:38.808Z,14.90
2019-05-11T10:09:08.206Z,15.30
2019-05-11T10:11:36.930Z,15.30
2019-05-11T10:14:08.169Z,15.20
2019-05-11T10:16:35.841Z,14.90
2019-05-11T10:19:04.293Z,14.90
2019-05-11T10:21:32.736Z,15.00
2019-05-11T10:24:01.158Z,14.90
2019-05-11T10:26:29.590Z,14.90
2019-05-11T10:28:58.632Z,15.00
2019-05-11T10:31:31.010Z,15.10
2019-05-11T10:33:59.440Z,15.10
2019-05-11T10:36:28.122Z,15.20
2019-05-11T10:38:58.674Z,15.10
2019-05-11T10:41:28.423Z,15.20
2019-05-11T10:43:58.049Z,15.20
2019-05-11T10:46:28.754Z,15.20
2019-05-11T10:48:58.668Z,15.20
2019-05-11T10:51:28.852Z,15.20
2019-05-11T10:53:57.748Z,15.20
2019-05-11T10:56:28.420Z,15.30
2019-05-11T10:58:58.629Z,15.30
2019-05-11T11:01:28.538Z,15.30
2019-05-11T11:03:58.703Z,15.20
2019-05-11T11:06:28.157Z,15.30
2019-05-11T11:08:57.880Z,15.40
2019-05-11T11:11:27.787Z,15.40
2019-05-11T11:13:58.492Z,15.30
2019-05-11T11:16:36.727Z,15.40
2019-05-11T11:18:58.784Z,15.40
2019-05-11T11:21:27.908Z,15.50
2019-05-11T11:23:58.539Z,15.50
2019-05-11T11:26:28.510Z,15.40
2019-05-11T11:28:58.034Z,15.40
2019-05-11T11:31:28.725Z,15.50
2019-05-11T11:33:58.526Z,15.50
2019-05-11T11:36:28.368Z,15.60
2019-05-11T11:38:58.312Z,15.60
2019-05-11T11:41:26.956Z,15.60
2019-05-11T11:43:55.629Z,15.60
2019-05-11T11:46:24.077Z,15.60
2019-05-11T11:48:52.523Z,15.60
2019-05-11T11:51:20.987Z,15.60
2019-05-11T11:53:49.416Z,15.60
2019-05-11T11:56:19.174Z,15.60
2019-05-11T11:58:48.827Z,15.60
2019-05-11T12:01:18.888Z,15.70
2019-05-11T12:03:48.825Z,15.70
2019-05-11T12:06:18.392Z,15.70
2019-05-11T12:08:49.315Z,15.60
2019-05-11T12:11:18.640Z,15.70
2019-05-11T12:13:47.717Z,15.70
2019-05-11T12:16:18.050Z,15.70
2019-05-11T12:18:48.550Z,15.70
2019-05-11T12:21:18.660Z,15.80
2019-05-11T12:23:48.635Z,15.70
2019-05-11T12:26:17.723Z,15.70
2019-05-11T12:28:48.797Z,15.80
2019-05-11T12:31:18.506Z,15.80
2019-05-11T12:33:48.407Z,15.80
2019-05-11T12:36:18.829Z,16.00
2019-05-11T12:38:48.849Z,15.90
2019-05-11T12:41:18.946Z,15.80
2019-05-11T12:43:48.938Z,15.80
2019-05-11T12:46:18.866Z,16.00
2019-05-11T12:48:48.431Z,15.90
2019-05-11T12:51:18.646Z,15.80
2019-05-11T12:53:47.801Z,15.80
2019-05-11T12:56:18.774Z,15.80
2019-05-11T12:58:48.970Z,15.80
2019-05-11T13:01:18.838Z,15.90
2019-05-11T13:03:48.975Z,15.90
2019-05-11T13:06:19.114Z,15.90
2019-05-11T13:08:48.084Z,15.90
2019-05-11T13:11:18.681Z,15.90
2019-05-11T13:13:48.471Z,15.90
2019-05-11T13:16:18.346Z,15.90
2019-05-11T13:18:48.838Z,15.90
2019-05-11T13:21:18.351Z,15.90
2019-05-11T13:23:48.839Z,16.00
2019-05-11T13:26:18.015Z,15.90
2019-05-11T13:28:48.401Z,15.90
2019-05-11T13:31:18.762Z,16.00
2019-05-11T13:33:48.026Z,16.00
2019-05-11T13:36:18.617Z,16.00
2019-05-11T13:38:48.386Z,16.00
2019-05-11T13:41:18.838Z,16.00
2019-05-11T13:43:48.562Z,16.00
2019-05-11T13:46:17.994Z,16.00
2019-05-11T13:48:47.677Z,16.00
2019-05-11T13:51:18.273Z,16.00
2019-05-11T13:53:48.155Z,16.00
2019-05-11T13:56:18.374Z,16.10
2019-05-11T13:58:48.786Z,16.00
2019-05-11T14:01:18.402Z,16.00
2019-05-11T14:03:48.343Z,16.00
2019-05-11T14:06:18.398Z,16.00
2019-05-11T14:08:48.146Z,16.00
2019-05-11T14:11:18.162Z,16.00
2019-05-11T14:13:47.979Z,16.00
2019-05-11T14:16:18.614Z,16.00
2019-05-11T14:18:48.830Z,16.10
2019-05-11T14:21:18.538Z,16.10
2019-05-11T14:23:48.489Z,16.10
2019-05-11T14:26:19.263Z,16.10
2019-05-11T14:28:48.045Z,16.20
2019-05-11T14:31:18.569Z,16.10
2019-05-11T14:33:48.696Z,16.10
2019-05-11T14:36:18.376Z,16.00
2019-05-11T14:38:48.729Z,16.00
2019-05-11T14:41:18.282Z,16.00
2019-05-11T14:43:49.029Z,16.10
2019-05-11T14:46:18.104Z,16.10
2019-05-11T14:48:48.184Z,16.10
2019-05-11T14:51:17.974Z,16.10
2019-05-11T14:53:48.177Z,16.00
2019-05-11T14:56:19.057Z,16.00
2019-05-11T14:58:49.035Z,16.10
2019-05-11T15:01:18.297Z,16.10
2019-05-11T15:03:48.555Z,16.10
2019-05-11T15:06:18.795Z,16.10
2019-05-11T15:08:48.032Z,16.20
2019-05-11T15:11:18.856Z,16.30
2019-05-11T15:13:48.723Z,16.10
2019-05-11T15:16:18.764Z,16.10
2019-05-11T15:18:48.449Z,16.10
2019-05-11T15:21:18.871Z,16.10
2019-05-11T15:23:47.747Z,16.10
2019-05-11T15:26:18.491Z,16.00
2019-05-11T15:28:48.591Z,16.00
2019-05-11T15:31:21.869Z,16.10
2019-05-11T15:33:48.857Z,16.10
2019-05-11T15:36:19.042Z,16.10
2019-05-11T15:38:48.131Z,16.10
2019-05-11T15:41:17.767Z,16.10
2019-05-11T15:43:48.008Z,16.10
2019-05-11T15:46:19.464Z,16.10
2019-05-11T15:48:56.816Z,16.10
2019-05-11T15:51:18.761Z,16.10
2019-05-11T15:53:50.270Z,16.10
2019-05-11T15:56:19.039Z,16.50
2019-05-11T15:58:48.565Z,16.70
2019-05-11T16:01:18.569Z,17.00
2019-05-11T16:03:49.720Z,17.30
2019-05-11T16:06:18.559Z,17.30
2019-05-11T16:08:47.314Z,17.20
2019-05-11T16:11:18.125Z,17.20
2019-05-11T16:13:48.376Z,17.30
2019-05-11T16:16:16.486Z,17.30
2019-05-11T16:18:44.918Z,17.20
2019-05-11T16:21:13.350Z,16.90
2019-05-11T16:23:41.822Z,17.00
2019-05-11T16:26:10.246Z,17.20
2019-05-11T16:28:38.685Z,17.10
2019-05-11T16:31:09.254Z,16.90
2019-05-11T16:33:37.561Z,16.90
2019-05-11T16:36:08.804Z,16.80
2019-05-11T16:38:38.036Z,16.70
2019-05-11T16:41:06.323Z,17.00
2019-05-11T16:43:34.742Z,17.30
2019-05-11T16:46:03.198Z,17.40
2019-05-11T16:48:31.622Z,17.30
2019-05-11T16:51:01.693Z,17.10
2019-05-11T16:53:30.138Z,17.10
2019-05-11T16:55:58.577Z,17.00
2019-05-11T16:58:28.338Z,17.20
2019-05-11T17:00:58.201Z,17.20
2019-05-11T17:03:27.943Z,17.00
2019-05-11T17:05:58.692Z,17.20
2019-05-11T17:08:27.674Z,16.90
2019-05-11T17:10:59.403Z,17.00
2019-05-11T17:13:28.081Z,16.70
2019-05-11T17:15:58.295Z,16.60
2019-05-11T17:18:28.335Z,16.90
2019-05-11T17:20:58.405Z,17.10
2019-05-11T17:23:30.544Z,17.00
2019-05-11T17:25:57.856Z,17.00
2019-05-11T17:28:26.528Z,16.80
2019-05-11T17:30:55.004Z,16.70
2019-05-11T17:33:23.457Z,16.70
2019-05-11T17:35:51.881Z,16.90
2019-05-11T17:38:20.342Z,17.10
2019-05-11T17:40:48.765Z,16.80
2019-05-11T17:43:18.140Z,16.50
2019-05-11T17:45:48.034Z,16.80
2019-05-11T17:48:17.864Z,16.80
2019-05-11T17:50:46.803Z,16.80
2019-05-11T17:53:15.219Z,16.60
2019-05-11T17:55:43.653Z,16.60
2019-05-11T17:58:12.106Z,16.40
2019-05-11T18:00:40.533Z,16.40
2019-05-11T18:03:11.420Z,16.50
2019-05-11T18:05:39.137Z,16.50
2019-05-11T18:08:08.683Z,16.50
2019-05-11T18:10:38.469Z,16.40
2019-05-11T18:13:07.138Z,16.50
2019-05-11T18:15:37.860Z,16.50
2019-05-11T18:18:05.714Z,16.60
2019-05-11T18:20:34.161Z,16.50
2019-05-11T18:23:02.593Z,16.60
2019-05-11T18:25:31.036Z,16.30
2019-05-11T18:27:59.490Z,16.00
2019-05-11T18:30:29.370Z,15.80
2019-05-11T18:32:59.521Z,15.90
2019-05-11T18:35:28.181Z,16.20
2019-05-11T18:37:56.840Z,16.60
2019-05-11T18:40:25.297Z,16.80
2019-05-11T18:42:53.712Z,16.20
2019-05-11T18:45:22.162Z,16.50
2019-05-11T18:47:50.584Z,16.70
2019-05-11T18:50:29.948Z,16.70
2019-05-11T18:52:49.467Z,16.90
2019-05-11T18:55:18.896Z,16.70
2019-05-11T18:57:49.120Z,16.70
2019-05-11T19:00:19.186Z,16.50
2019-05-11T19:02:49.436Z,16.90
2019-05-11T19:05:18.198Z,16.70
2019-05-11T19:07:48.149Z,17.00
2019-05-11T19:10:16.986Z,17.00
2019-05-11T19:12:45.422Z,16.80
2019-05-11T19:15:14.205Z,16.30
2019-05-11T19:17:42.877Z,16.30
2019-05-11T19:20:11.401Z,16.50
2019-05-11T19:22:39.821Z,16.20
2019-05-11T19:25:09.024Z,16.50
2019-05-11T19:27:37.740Z,16.40
2019-05-11T19:30:09.333Z,16.30
2019-05-11T19:32:38.389Z,16.20
2019-05-11T19:35:08.918Z,15.80
2019-05-11T19:37:38.598Z,16.00
2019-05-11T19:40:09.116Z,16.10
2019-05-11T19:42:54.590Z,16.10
2019-05-11T19:45:23.461Z,15.80
2019-05-11T19:47:52.071Z,15.90
2019-05-11T19:50:20.519Z,15.80
2019-05-11T19:52:49.040Z,16.00
2019-05-11T19:55:18.146Z,15.80
2019-05-11T19:57:48.298Z,15.80
2019-05-11T20:00:18.446Z,15.70
2019-05-11T20:02:47.194Z,16.00
2019-05-11T20:05:18.155Z,15.90
2019-05-11T20:07:48.703Z,15.80
2019-05-11T20:10:18.537Z,15.70
2019-05-11T20:12:48.395Z,15.80
2019-05-11T20:15:18.912Z,16.30
2019-05-11T20:17:48.755Z,16.20
2019-05-11T20:20:18.463Z,16.50
2019-05-11T20:22:48.281Z,16.10
2019-05-11T20:25:18.560Z,16.10
2019-05-11T20:27:48.369Z,16.30
2019-05-11T20:30:18.394Z,16.40
2019-05-11T20:32:48.489Z,16.20
2019-05-11T20:35:17.406Z,16.10
2019-05-11T20:37:45.841Z,16.20
2019-05-11T20:40:14.486Z,16.40
2019-05-11T20:42:42.919Z,16.60
2019-05-11T20:45:11.610Z,16.90
2019-05-11T20:47:40.298Z,16.70
2019-05-11T20:50:08.885Z,16.80
2019-05-11T20:52:39.028Z,16.70
2019-05-11T20:55:08.878Z,16.80
2019-05-11T20:57:39.382Z,16.70
2019-05-11T21:00:09.777Z,16.70
2019-05-11T21:02:38.402Z,16.70
2019-05-11T21:05:08.987Z,16.80
2019-05-11T21:07:38.749Z,17.00
2019-05-11T21:10:08.615Z,17.20
2019-05-11T21:12:38.585Z,17.10
2019-05-11T21:15:08.299Z,16.90
2019-05-11T21:17:36.744Z,16.70
2019-05-11T21:20:11.312Z,16.50
2019-05-11T21:22:40.748Z,16.70
2019-05-11T21:25:09.697Z,16.60
2019-05-11T21:27:38.533Z,16.80
2019-05-11T21:30:10.884Z,16.80
2019-05-11T21:32:40.942Z,16.90
2019-05-11T21:35:09.613Z,17.10
2019-05-11T21:37:38.692Z,16.40
2019-05-11T21:40:08.727Z,16.40
2019-05-11T21:42:38.912Z,16.20
2019-05-11T21:45:09.477Z,16.60
2019-05-11T21:47:39.493Z,16.50
2019-05-11T21:50:09.429Z,16.30
2019-05-11T21:52:38.519Z,16.10
2019-05-11T21:55:09.704Z,16.10
2019-05-11T21:57:38.547Z,15.80
2019-05-11T22:00:09.004Z,15.80
2019-05-11T22:02:38.437Z,15.50
2019-05-11T22:05:08.682Z,15.80
2019-05-11T22:07:38.792Z,16.10
2019-05-11T22:10:08.921Z,15.80
2019-05-11T22:12:38.745Z,16.00
2019-05-11T22:15:09.191Z,16.30
2019-05-11T22:17:39.393Z,15.80
2019-05-11T22:20:08.994Z,16.10
2019-05-11T22:25:28.685Z,15.90
2019-05-11T22:28:09.328Z,16.10
2019-05-11T22:30:49.895Z,15.90
2019-05-11T22:33:30.218Z,16.00
2019-05-11T22:36:11.166Z,16.40
2019-05-11T22:38:51.543Z,16.20
2019-05-11T22:41:32.030Z,15.40
2019-05-11T22:44:12.894Z,15.90
2019-05-11T22:46:53.835Z,15.80
2019-05-11T22:49:34.458Z,15.70
2019-05-11T22:52:17.768Z,15.70
2019-05-11T22:54:59.030Z,16.00
2019-05-11T22:57:40.117Z,15.80
2019-05-11T23:00:20.740Z,15.70
2019-05-11T23:03:01.526Z,15.60
2019-05-11T23:05:42.145Z,15.80
2019-05-11T23:08:22.801Z,15.70
2019-05-11T23:11:03.777Z,15.50
2019-05-11T23:13:44.590Z,15.90
2019-05-11T23:16:25.137Z,15.70
2019-05-11T23:19:09.453Z,16.00
2019-05-11T23:21:48.773Z,15.60
2019-05-11T23:24:29.603Z,15.50
2019-05-11T23:27:10.289Z,15.20
2019-05-11T23:29:51.419Z,15.20
2019-05-11T23:32:32.054Z,15.40
2019-05-11T23:35:12.562Z,15.30
2019-05-11T23:37:53.317Z,15.10
2019-05-11T23:40:34.241Z,15.10
2019-05-11T23:43:14.966Z,15.30
2019-05-11T23:45:57.658Z,15.00
2019-05-11T23:48:38.666Z,14.90
2019-05-11T23:51:19.855Z,14.80
2019-05-11T23:54:00.597Z,14.70
2019-05-11T23:56:41.226Z,14.70
2019-05-11T23:59:22.277Z,14.60
